Tijuana, Mexico

1:29 AM PDT on October 26, 2014 (GMT -0700)
Proteccion Civil Tijuana | Change Station
CLOSE
Current Station
Personal Weather Station
Location: TIJUANA, BAJA CALIFORNIA
Elevation: 396 ft
Nearby Weather Stations

Elev 396 ft 32.53 °N, 116.99 °W | Updated 6 minutes ago

Partly Cloudy
Partly Cloudy
64.9 °F
Feels Like 64.9 °F
N
0.0
Wind Variable Wind from WSW

Today
High -- | Low -- °F
--% Chance of Precip.
Yesterday
High -- | Low -- °F
Precip. -- in
7:00 AM 6:02 PM
Waxing Crescent, 6% visible
Pressure 30.01 in
Visibility 10.0 miles
Clouds Few 1500 ft
Dew Point 62 °F
Humidity 90%
Rainfall 0.00 in
Snow Depth Not available.
UV 0 out of 12
Pollen Not available.
Air Quality Not available.
Flu Activity Not available.
METAR KSDM 260753Z AUTO 00000KT 10SM FEW015 17/16 A3003 RMK AO2 SLP162 T01720156 402610150 TSNO $

More Conditions Fewer Conditions

Pressure 30.01 in
Visibility 10.0 miles
Clouds Few 1500 ft
Dew Point 62 °F
Humidity 90%
Rainfall 0.00 in
Snow Depth Not available.
UV 0 out of 12
Pollen Not available.
Air Quality Not available.
Flu Activity Not available.
METAR KSDM 260753Z AUTO 00000KT 10SM FEW015 17/16 A3003 RMK AO2 SLP162 T01720156 402610150 TSNO $

More Conditions Fewer Conditions

10-Day Weather Forecast

Almanac

Astronomy

Oct. 26, 2014 Rise Set
Actual Time 7:00 AM PDT 6:02 PM PDT
Civil Twilight 6:35 AM PDT 6:27 PM PDT
Nautical Twilight 6:06 AM PDT 6:56 PM PDT
Astronomical Twilight 5:37 AM PDT 7:25 PM PDT
Moon 9:37 AM PDT 8:24 PM PDT
Length of Visible Light 11h 52m
Length of Day
11h 02m
Tomorrow will be 1m 49s shorter.
Waxing Crescent, 6% of the Moon is Illuminated
Today
Waxing Crescent
Oct 30
First Quarter
Nov 6
Full
Nov 14
Last Quarter
Nov 22
New

Yesterday's Extremes

Country Highs Country Lows

Community

WunderPhotos

Upload Photos

1,765,125 photos uploaded!

Nearby

Snow Depth

Not available.

Earthquake Activity

City Distance Mag. Time & Date
Running Springs, California 119 miles 3.1 4:07 AM PDT
2014-10-25
Maneadero, Mexico 92 miles 2.5 7:44 AM PDT
2014-10-24
San Felipe, Mexico 113 miles 3.0 11:00 PM PDT
2014-10-23
Brea, California 109 miles 2.9 3:35 PM PDT
2014-10-23
Minimum magnitude displayed is 2.5.

Coastal Water Temperatures

Place Temperature
No Stations Reporting

Nearby Weather Stations